createdAt,value
2023-02-27T00:00:02.631Z,1020.7
2023-02-27T00:01:02.514Z,1020.7
2023-02-27T00:02:02.158Z,1020.7
2023-02-27T00:03:02.390Z,1020.7
2023-02-27T00:04:02.373Z,1020.7
2023-02-27T00:05:02.200Z,1020.8
2023-02-27T00:06:02.201Z,1020.7
2023-02-27T00:07:02.124Z,1020.7
2023-02-27T00:08:02.205Z,1020.7
2023-02-27T00:09:02.160Z,1020.7
2023-02-27T00:10:02.025Z,1020.8
2023-02-27T00:11:01.800Z,1020.8
2023-02-27T00:12:01.857Z,1020.8
2023-02-27T00:13:02.782Z,1020.8
2023-02-27T00:14:02.580Z,1020.8
2023-02-27T00:15:02.593Z,1020.8
2023-02-27T00:16:02.625Z,1020.9
2023-02-27T00:17:02.701Z,1020.8
2023-02-27T00:18:02.730Z,1020.9
2023-02-27T00:19:02.572Z,1020.9
2023-02-27T00:20:02.618Z,1021
2023-02-27T00:21:02.508Z,1020.9
2023-02-27T00:22:02.468Z,1021
2023-02-27T00:23:02.393Z,1021
2023-02-27T00:24:02.276Z,1021
2023-02-27T00:25:02.348Z,1021
2023-02-27T00:26:02.123Z,1020.9
2023-02-27T00:27:02.124Z,1020.9
2023-02-27T00:28:01.974Z,1020.9
2023-02-27T00:29:01.970Z,1020.9
2023-02-27T00:30:01.894Z,1020.9
2023-02-27T00:31:02.225Z,1020.9
2023-02-27T00:32:02.097Z,1021
2023-02-27T00:33:01.888Z,1021
2023-02-27T00:34:01.854Z,1020.9
2023-02-27T00:35:01.717Z,1021
2023-02-27T00:36:02.736Z,1020.9
2023-02-27T00:37:02.594Z,1021
2023-02-27T00:38:02.601Z,1021
2023-02-27T00:39:02.465Z,1020.9
2023-02-27T00:40:02.513Z,1020.9
2023-02-27T00:41:02.380Z,1020.9
2023-02-27T00:42:02.299Z,1020.9
2023-02-27T00:43:02.285Z,1020.9
2023-02-27T00:44:02.308Z,1020.9
2023-02-27T00:45:02.160Z,1020.9
2023-02-27T00:46:02.137Z,1020.9
2023-02-27T00:47:01.737Z,1020.9
2023-02-27T00:48:01.803Z,1020.9
2023-02-27T00:49:03.083Z,1020.9
2023-02-27T00:50:01.773Z,1020.9
2023-02-27T00:51:01.840Z,1021
2023-02-27T00:52:01.679Z,1020.9
2023-02-27T00:53:02.758Z,1020.9
2023-02-27T00:54:02.653Z,1020.9
2023-02-27T00:55:02.612Z,1020.9
2023-02-27T00:56:02.498Z,1020.9
2023-02-27T00:57:02.474Z,1020.9
2023-02-27T00:58:02.455Z,1020.9
2023-02-27T00:59:02.299Z,1020.9
2023-02-27T01:00:02.412Z,1020.9
2023-02-27T01:01:02.522Z,1020.9
2023-02-27T01:02:02.116Z,1020.9
2023-02-27T01:03:02.109Z,1020.9
2023-02-27T01:04:01.988Z,1020.8
2023-02-27T01:05:02.073Z,1020.8
2023-02-27T01:06:01.874Z,1020.9
2023-02-27T01:07:01.894Z,1020.9
2023-02-27T01:08:01.826Z,1020.8
2023-02-27T01:09:01.781Z,1020.9
2023-02-27T01:10:02.655Z,1020.9
2023-02-27T01:11:02.546Z,1020.9
2023-02-27T01:12:02.644Z,1020.9
2023-02-27T01:13:02.449Z,1020.9
2023-02-27T01:14:02.459Z,1020.9
2023-02-27T01:15:02.413Z,1020.9
2023-02-27T01:16:02.476Z,1020.9
2023-02-27T01:17:02.519Z,1020.9
2023-02-27T01:18:02.552Z,1020.9
2023-02-27T01:19:02.480Z,1020.9
2023-02-27T01:20:02.361Z,1020.9
2023-02-27T01:21:02.427Z,1020.9
2023-02-27T01:22:02.310Z,1020.9
2023-02-27T01:23:02.072Z,1021
2023-02-27T01:24:02.137Z,1020.9
2023-02-27T01:25:01.977Z,1021
2023-02-27T01:26:01.953Z,1021
2023-02-27T01:27:01.811Z,1021
2023-02-27T01:28:01.845Z,1020.9
2023-02-27T01:29:06.406Z,1021
2023-02-27T01:30:02.191Z,1021
2023-02-27T01:31:02.440Z,1021
2023-02-27T01:32:02.223Z,1021
2023-02-27T01:33:02.062Z,1021
2023-02-27T01:34:01.976Z,1021
2023-02-27T01:35:02.028Z,1021
2023-02-27T01:36:01.830Z,1021
2023-02-27T01:37:01.891Z,1021
2023-02-27T01:38:01.696Z,1021
2023-02-27T01:39:02.799Z,1021
2023-02-27T01:40:02.608Z,1021
2023-02-27T01:41:02.660Z,1021
2023-02-27T01:42:02.492Z,1021.1
2023-02-27T01:43:02.512Z,1021.1
2023-02-27T01:44:02.437Z,1021.1
2023-02-27T01:45:02.278Z,1021.1
2023-02-27T01:46:02.450Z,1021.1
2023-02-27T01:47:01.888Z,1021.1
2023-02-27T01:48:01.836Z,1021.2
2023-02-27T01:49:01.792Z,1021.2
2023-02-27T01:50:01.822Z,1021.2
2023-02-27T01:51:02.745Z,1021.1
2023-02-27T01:52:02.582Z,1021.2
2023-02-27T01:53:02.656Z,1021.2
2023-02-27T01:54:02.432Z,1021.2
2023-02-27T01:55:02.484Z,1021.2
2023-02-27T01:56:02.478Z,1021.2
2023-02-27T01:57:02.372Z,1021.2
2023-02-27T01:58:02.387Z,1021.2
2023-02-27T01:59:02.262Z,1021.2
2023-02-27T02:00:02.266Z,1021.2
2023-02-27T02:01:02.370Z,1021.2
2023-02-27T02:02:02.160Z,1021.3
2023-02-27T02:03:01.972Z,1021.3
2023-02-27T02:04:01.876Z,1021.3
2023-02-27T02:05:01.849Z,1021.2
2023-02-27T02:06:01.739Z,1021.2
2023-02-27T02:07:02.677Z,1021.3
2023-02-27T02:08:02.619Z,1021.3
2023-02-27T02:09:02.558Z,1021.3
2023-02-27T02:10:02.505Z,1021.2
2023-02-27T02:11:02.542Z,1021.3
2023-02-27T02:12:02.387Z,1021.3
2023-02-27T02:13:02.321Z,1021.3
2023-02-27T02:14:02.368Z,1021.3
2023-02-27T02:15:02.250Z,1021.4
2023-02-27T02:16:02.081Z,1021.3
2023-02-27T02:17:02.110Z,1021.3
2023-02-27T02:18:01.965Z,1021.4
2023-02-27T02:19:01.740Z,1021.4
2023-02-27T02:20:01.937Z,1021.4
2023-02-27T02:21:04.361Z,1021.4
2023-02-27T02:22:02.055Z,1021.4
2023-02-27T02:23:02.053Z,1021.5
2023-02-27T02:24:01.887Z,1021.4
2023-02-27T02:25:01.983Z,1021.5
2023-02-27T02:26:01.732Z,1021.5
2023-02-27T02:27:02.698Z,1021.5
2023-02-27T02:28:02.606Z,1021.5
2023-02-27T02:29:02.639Z,1021.5
2023-02-27T02:30:02.470Z,1021.5
2023-02-27T02:31:02.900Z,1021.5
2023-02-27T02:32:02.966Z,1021.5
2023-02-27T02:33:01.733Z,1021.6
2023-02-27T02:34:01.832Z,1021.6
2023-02-27T02:35:02.725Z,1021.5
2023-02-27T02:36:02.548Z,1021.5
2023-02-27T02:37:02.607Z,1021.5
2023-02-27T02:38:02.479Z,1021.5
2023-02-27T02:39:02.491Z,1021.5
2023-02-27T02:40:02.462Z,1021.6
2023-02-27T02:41:02.477Z,1021.6
2023-02-27T02:42:02.370Z,1021.6
2023-02-27T02:43:02.313Z,1021.6
2023-02-27T02:44:02.070Z,1021.6
2023-02-27T02:45:02.102Z,1021.7
2023-02-27T02:46:02.149Z,1021.6
2023-02-27T02:47:01.862Z,1021.7
2023-02-27T02:48:01.836Z,1021.7
2023-02-27T02:49:01.807Z,1021.7
2023-02-27T02:50:02.759Z,1021.7
2023-02-27T02:51:02.591Z,1021.7
2023-02-27T02:52:02.714Z,1021.7
2023-02-27T02:53:02.519Z,1021.7
2023-02-27T02:54:02.615Z,1021.7
2023-02-27T02:55:02.378Z,1021.7
2023-02-27T02:56:02.419Z,1021.8
2023-02-27T02:57:02.383Z,1021.7
2023-02-27T02:58:02.223Z,1021.7
2023-02-27T02:59:02.231Z,1021.8
2023-02-27T03:00:02.318Z,1021.8
2023-02-27T03:01:02.067Z,1021.8
2023-02-27T03:02:02.125Z,1021.8
2023-02-27T03:03:02.134Z,1021.7
2023-02-27T03:04:02.138Z,1021.7
2023-02-27T03:05:02.072Z,1021.7
2023-02-27T03:06:02.114Z,1021.7
2023-02-27T03:07:01.967Z,1021.7
2023-02-27T03:08:01.947Z,1021.7
2023-02-27T03:09:01.921Z,1021.7
2023-02-27T03:10:01.780Z,1021.7
2023-02-27T03:11:01.814Z,1021.6
2023-02-27T03:12:02.692Z,1021.7
2023-02-27T03:13:02.616Z,1021.7
2023-02-27T03:14:02.649Z,1021.7
2023-02-27T03:15:02.476Z,1021.7
2023-02-27T03:16:02.765Z,1021.7
2023-02-27T03:17:02.468Z,1021.7
2023-02-27T03:18:02.398Z,1021.7
2023-02-27T03:19:02.392Z,1021.7
2023-02-27T03:20:02.445Z,1021.7
2023-02-27T03:21:02.302Z,1021.7
2023-02-27T03:22:02.385Z,1021.7
2023-02-27T03:23:02.299Z,1021.7
2023-02-27T03:24:02.125Z,1021.7
2023-02-27T03:25:02.181Z,1021.7
2023-02-27T03:26:02.119Z,1021.7
2023-02-27T03:27:02.217Z,1021.7
2023-02-27T03:28:02.078Z,1021.8
2023-02-27T03:29:02.116Z,1021.7
2023-02-27T03:30:02.122Z,1021.7
2023-02-27T03:31:02.423Z,1021.6
2023-02-27T03:32:02.570Z,1021.6
2023-02-27T03:33:02.297Z,1021.7
2023-02-27T03:34:02.373Z,1021.6
2023-02-27T03:35:02.107Z,1021.6
2023-02-27T03:36:02.182Z,1021.6
2023-02-27T03:37:02.123Z,1021.6
2023-02-27T03:38:02.141Z,1021.6
2023-02-27T03:39:01.963Z,1021.6
2023-02-27T03:40:01.970Z,1021.7
2023-02-27T03:41:01.895Z,1021.7
2023-02-27T03:42:01.972Z,1021.6
2023-02-27T03:43:01.776Z,1021.6
2023-02-27T03:44:01.798Z,1021.7
2023-02-27T03:45:02.741Z,1021.7
2023-02-27T03:46:02.856Z,1021.7
2023-02-27T03:47:02.685Z,1021.8
2023-02-27T03:48:02.540Z,1021.8
2023-02-27T03:49:02.485Z,1021.8
2023-02-27T03:50:02.541Z,1021.8
2023-02-27T03:51:02.391Z,1021.7
2023-02-27T03:52:02.318Z,1021.7
2023-02-27T03:53:02.433Z,1021.8
2023-02-27T03:54:02.397Z,1021.8
2023-02-27T03:55:02.223Z,1021.8
2023-02-27T03:56:02.307Z,1021.8
2023-02-27T03:57:02.247Z,1021.8
2023-02-27T03:58:02.062Z,1021.8
2023-02-27T03:59:02.019Z,1021.8
2023-02-27T04:00:01.979Z,1021.8
2023-02-27T04:01:01.979Z,1021.8
2023-02-27T04:02:02.017Z,1021.8
2023-02-27T04:03:01.980Z,1021.8
2023-02-27T04:04:01.700Z,1021.9
2023-02-27T04:05:02.764Z,1021.8
2023-02-27T04:06:02.603Z,1021.9
2023-02-27T04:07:02.553Z,1021.8
2023-02-27T04:08:02.449Z,1021.9
2023-02-27T04:09:02.483Z,1021.9
2023-02-27T04:10:02.498Z,1021.9
2023-02-27T04:11:02.333Z,1021.8
2023-02-27T04:12:02.405Z,1021.9
2023-02-27T04:13:02.479Z,1021.9
2023-02-27T04:14:02.327Z,1022
2023-02-27T04:15:02.408Z,1022
2023-02-27T04:16:02.418Z,1022
2023-02-27T04:17:02.255Z,1021.9
2023-02-27T04:18:02.329Z,1022
2023-02-27T04:19:02.112Z,1021.9
2023-02-27T04:20:02.328Z,1022
2023-02-27T04:21:02.333Z,1022
2023-02-27T04:22:02.123Z,1022
2023-02-27T04:23:02.194Z,1022.1
2023-02-27T04:24:02.103Z,1022.1
2023-02-27T04:25:02.271Z,1022.1
2023-02-27T04:26:02.061Z,1022.1
2023-02-27T04:27:02.087Z,1022.1
2023-02-27T04:28:01.922Z,1022.1
2023-02-27T04:29:01.954Z,1022.1
2023-02-27T04:30:01.802Z,1022.1
2023-02-27T04:31:02.098Z,1022.1
2023-02-27T04:32:02.424Z,1022.2
2023-02-27T04:33:02.246Z,1022.2
2023-02-27T04:34:02.186Z,1022.2
2023-02-27T04:35:02.094Z,1022.1
2023-02-27T04:36:02.151Z,1022.2
2023-02-27T04:37:01.977Z,1022.1
2023-02-27T04:38:01.950Z,1022.1
2023-02-27T04:39:01.745Z,1022.2
2023-02-27T04:40:01.865Z,1022.2
2023-02-27T04:41:02.774Z,1022.2
2023-02-27T04:42:02.630Z,1022.3
2023-02-27T04:43:02.639Z,1022.3
2023-02-27T04:44:02.485Z,1022.3
2023-02-27T04:45:02.561Z,1022.3
2023-02-27T04:46:02.561Z,1022.3
2023-02-27T04:47:02.388Z,1022.3
2023-02-27T04:48:02.462Z,1022.3
2023-02-27T04:49:02.494Z,1022.3
2023-02-27T04:50:02.300Z,1022.3
2023-02-27T04:51:02.203Z,1022.3
2023-02-27T04:52:02.125Z,1022.3
2023-02-27T04:53:02.211Z,1022.3
2023-02-27T04:54:02.034Z,1022.3
2023-02-27T04:55:02.049Z,1022.3
2023-02-27T04:56:01.883Z,1022.3
2023-02-27T04:57:01.968Z,1022.3
2023-02-27T04:58:01.898Z,1022.4
2023-02-27T04:59:01.853Z,1022.3
2023-02-27T05:00:01.738Z,1022.3
2023-02-27T05:01:01.827Z,1022.3
2023-02-27T05:02:02.980Z,1022.4
2023-02-27T05:03:01.727Z,1022.3
2023-02-27T05:04:01.749Z,1022.3
2023-02-27T05:05:02.750Z,1022.4
2023-02-27T05:06:02.594Z,1022.4
2023-02-27T05:07:02.571Z,1022.4
2023-02-27T05:08:02.444Z,1022.4
2023-02-27T05:09:02.583Z,1022.3
2023-02-27T05:10:02.490Z,1022.4
2023-02-27T05:11:04.486Z,1022.3
2023-02-27T05:12:02.439Z,1022.3
2023-02-27T05:13:02.426Z,1022.3
2023-02-27T05:14:02.216Z,1022.4
2023-02-27T05:15:02.185Z,1022.3
2023-02-27T05:16:02.477Z,1022.4
2023-02-27T05:17:02.074Z,1022.4
2023-02-27T05:18:02.423Z,1022.4
2023-02-27T05:19:02.262Z,1022.5
2023-02-27T05:20:02.182Z,1022.5
2023-02-27T05:21:02.186Z,1022.4
2023-02-27T05:22:02.000Z,1022.5
2023-02-27T05:23:01.901Z,1022.5
2023-02-27T05:24:01.753Z,1022.6
2023-02-27T05:25:01.928Z,1022.5
2023-02-27T05:26:01.811Z,1022.5
2023-02-27T05:27:02.699Z,1022.5
2023-02-27T05:28:02.603Z,1022.5
2023-02-27T05:29:02.681Z,1022.5
2023-02-27T05:30:02.513Z,1022.6
2023-02-27T05:31:02.569Z,1022.5
2023-02-27T05:32:02.559Z,1022.5
2023-02-27T05:33:02.441Z,1022.5
2023-02-27T05:34:02.465Z,1022.6
2023-02-27T05:35:02.272Z,1022.6
2023-02-27T05:36:02.614Z,1022.6
2023-02-27T05:37:02.602Z,1022.6
2023-02-27T05:38:02.362Z,1022.6
2023-02-27T05:39:02.364Z,1022.6
2023-02-27T05:40:02.243Z,1022.7
2023-02-27T05:41:02.140Z,1022.6
2023-02-27T05:42:02.252Z,1022.6
2023-02-27T05:43:01.999Z,1022.6
2023-02-27T05:44:02.019Z,1022.6
2023-02-27T05:45:01.994Z,1022.6
2023-02-27T05:46:02.133Z,1022.6
2023-02-27T05:47:01.721Z,1022.6
2023-02-27T05:48:01.770Z,1022.8
2023-02-27T05:49:02.712Z,1022.6
2023-02-27T05:50:02.638Z,1022.8
2023-02-27T05:51:02.551Z,1022.8
2023-02-27T05:52:02.456Z,1022.7
2023-02-27T05:53:02.526Z,1022.8
2023-02-27T05:54:02.493Z,1022.8
2023-02-27T05:55:02.329Z,1022.8
2023-02-27T05:56:02.302Z,1022.8
2023-02-27T05:57:02.361Z,1022.7
2023-02-27T05:58:02.217Z,1022.9
2023-02-27T05:59:02.191Z,1022.9
2023-02-27T06:00:02.000Z,1022.9
2023-02-27T06:01:02.026Z,1022.9
2023-02-27T06:02:01.911Z,1023
2023-02-27T06:03:01.922Z,1022.9
2023-02-27T06:04:02.755Z,1023
2023-02-27T06:05:02.640Z,1023
2023-02-27T06:06:02.692Z,1022.9
2023-02-27T06:07:02.476Z,1022.9
2023-02-27T06:08:02.478Z,1022.9
2023-02-27T06:09:02.516Z,1023
2023-02-27T06:10:02.491Z,1023
2023-02-27T06:11:02.323Z,1022.9
2023-02-27T06:12:02.343Z,1023
2023-02-27T06:13:02.228Z,1023
2023-02-27T06:14:02.294Z,1023
2023-02-27T06:15:01.684Z,1023
2023-02-27T06:16:02.697Z,1023
2023-02-27T06:17:02.582Z,1023
2023-02-27T06:18:02.463Z,1023.1
2023-02-27T06:19:05.321Z,1023
2023-02-27T06:20:02.021Z,1022.9
2023-02-27T06:21:02.058Z,1023
2023-02-27T06:22:01.965Z,1023
2023-02-27T06:23:01.790Z,1023
2023-02-27T06:24:01.699Z,1023
2023-02-27T06:25:02.789Z,1023
2023-02-27T06:26:02.629Z,1023
2023-02-27T06:27:02.629Z,1023
2023-02-27T06:28:02.465Z,1023
2023-02-27T06:29:02.531Z,1023
2023-02-27T06:30:02.433Z,1023
2023-02-27T06:31:02.409Z,1023
2023-02-27T06:32:02.497Z,1023
2023-02-27T06:33:02.593Z,1023.1
2023-02-27T06:34:02.425Z,1023.1
2023-02-27T06:35:02.290Z,1023
2023-02-27T06:36:02.413Z,1023
2023-02-27T06:37:04.689Z,1023.1
2023-02-27T06:38:02.463Z,1023.1
2023-02-27T06:39:02.322Z,1023.1
2023-02-27T06:40:02.286Z,1023.1
2023-02-27T06:41:02.168Z,1023.1
2023-02-27T06:42:02.242Z,1023.1
2023-02-27T06:43:01.971Z,1023.1
2023-02-27T06:44:02.015Z,1023.1
2023-02-27T06:45:01.853Z,1023.1
2023-02-27T06:46:01.961Z,1023.1
2023-02-27T06:47:01.771Z,1023.1
2023-02-27T06:48:01.752Z,1023.2
2023-02-27T06:49:02.715Z,1023.1
2023-02-27T06:50:02.626Z,1023.2
2023-02-27T06:51:02.622Z,1023.2
2023-02-27T06:52:02.458Z,1023.2
2023-02-27T06:53:02.558Z,1023.2
2023-02-27T06:54:02.484Z,1023.2
2023-02-27T06:55:02.322Z,1023.2
2023-02-27T06:56:02.331Z,1023.2
2023-02-27T06:57:02.287Z,1023.2
2023-02-27T06:58:02.129Z,1023.2
2023-02-27T06:59:02.126Z,1023.2
2023-02-27T07:00:02.007Z,1023.1
2023-02-27T07:01:02.154Z,1023.2
2023-02-27T07:02:01.779Z,1023.2
2023-02-27T07:03:01.760Z,1023.2
2023-02-27T07:04:02.724Z,1023.2
2023-02-27T07:05:09.144Z,1023.2
2023-02-27T07:06:01.889Z,1023.2
2023-02-27T07:07:38.869Z,1023.2
2023-02-27T07:08:01.736Z,1023.1
2023-02-27T07:09:07.397Z,1023.2
2023-02-27T07:10:02.279Z,1023.3
2023-02-27T07:11:01.937Z,1023.2
2023-02-27T07:12:01.900Z,1023.2
2023-02-27T07:13:01.905Z,1023.3
2023-02-27T07:14:01.759Z,1023.3
2023-02-27T07:15:02.697Z,1023.4
2023-02-27T07:16:02.821Z,1023.4
2023-02-27T07:17:02.629Z,1023.4
2023-02-27T07:18:02.690Z,1023.4
2023-02-27T07:19:02.491Z,1023.4
2023-02-27T07:20:02.507Z,1023.5
2023-02-27T07:21:02.425Z,1023.3
2023-02-27T07:22:02.450Z,1023.3
2023-02-27T07:23:02.395Z,1023.3
2023-02-27T07:24:02.209Z,1023.3
2023-02-27T07:25:02.283Z,1023.4
2023-02-27T07:26:02.111Z,1023.4
2023-02-27T07:27:02.136Z,1023.3
2023-02-27T07:28:02.455Z,1023.3
2023-02-27T07:29:02.230Z,1023.3
2023-02-27T07:30:02.270Z,1023.4
2023-02-27T07:31:02.529Z,1023.4
2023-02-27T07:32:02.206Z,1023.4
2023-02-27T07:33:02.091Z,1023.3
2023-02-27T07:34:01.859Z,1023.4
2023-02-27T07:35:01.862Z,1023.4
2023-02-27T07:36:01.942Z,1023.4
2023-02-27T07:37:02.821Z,1023.4
2023-02-27T07:38:02.630Z,1023.3
2023-02-27T07:39:02.705Z,1023.4
2023-02-27T07:40:02.596Z,1023.4
2023-02-27T07:41:02.530Z,1023.4
2023-02-27T07:42:02.510Z,1023.4
2023-02-27T07:43:02.347Z,1023.4
2023-02-27T07:44:02.370Z,1023.4
2023-02-27T07:45:02.322Z,1023.4
2023-02-27T07:46:02.232Z,1023.5
2023-02-27T07:47:02.148Z,1023.5
2023-02-27T07:48:02.155Z,1023.4
2023-02-27T07:49:02.011Z,1023.5
2023-02-27T07:50:02.986Z,1023.5
2023-02-27T07:51:02.658Z,1023.5
2023-02-27T07:52:02.440Z,1023.5
2023-02-27T07:53:02.494Z,1023.5
2023-02-27T07:54:02.440Z,1023.5
2023-02-27T07:55:02.278Z,1023.5
2023-02-27T07:56:02.283Z,1023.5
2023-02-27T07:57:02.293Z,1023.5
2023-02-27T07:58:02.089Z,1023.5
2023-02-27T07:59:02.064Z,1023.6
2023-02-27T08:00:01.920Z,1023.5
2023-02-27T08:01:01.798Z,1023.6
2023-02-27T08:02:02.695Z,1023.5
2023-02-27T08:03:02.700Z,1023.6
2023-02-27T08:04:02.631Z,1023.6
2023-02-27T08:05:02.504Z,1023.7
2023-02-27T08:06:03.059Z,1023.6
2023-02-27T08:07:01.842Z,1023.6
2023-02-27T08:08:01.788Z,1023.7
2023-02-27T08:09:02.781Z,1023.6
2023-02-27T08:10:02.672Z,1023.7
2023-02-27T08:11:02.669Z,1023.6
2023-02-27T08:12:02.502Z,1023.6
2023-02-27T08:13:02.566Z,1023.6
2023-02-27T08:14:03.690Z,1023.7
2023-02-27T08:15:02.486Z,1023.7
2023-02-27T08:16:02.536Z,1023.7
2023-02-27T08:17:02.858Z,1023.7
2023-02-27T08:18:02.584Z,1023.7
2023-02-27T08:19:02.586Z,1023.7
2023-02-27T08:20:02.529Z,1023.8
2023-02-27T08:21:02.511Z,1023.8
2023-02-27T08:22:02.380Z,1023.8
2023-02-27T08:23:02.146Z,1023.7
2023-02-27T08:24:02.218Z,1023.8
2023-02-27T08:25:02.052Z,1023.8
2023-02-27T08:26:02.249Z,1023.8
2023-02-27T08:27:01.970Z,1023.8
2023-02-27T08:28:01.993Z,1023.8
2023-02-27T08:29:01.830Z,1023.8
2023-02-27T08:30:02.481Z,1023.9
2023-02-27T08:31:02.560Z,1023.9
2023-02-27T08:32:01.830Z,1023.9
2023-02-27T08:33:02.782Z,1023.9
2023-02-27T08:34:11.253Z,1023.9
2023-02-27T08:35:01.972Z,1023.9
2023-02-27T08:36:02.119Z,1024
2023-02-27T08:37:01.870Z,1023.9
2023-02-27T08:38:01.932Z,1023.9
2023-02-27T08:39:01.699Z,1024
2023-02-27T08:40:02.758Z,1024
2023-02-27T08:41:02.634Z,1024
2023-02-27T08:42:03.280Z,1024
2023-02-27T08:43:01.967Z,1024
2023-02-27T08:44:02.024Z,1024
2023-02-27T08:45:01.891Z,1024
2023-02-27T08:46:01.987Z,1024
2023-02-27T08:47:01.750Z,1024.1
2023-02-27T08:48:01.889Z,1024.1
2023-02-27T08:49:02.679Z,1024.1
2023-02-27T08:50:02.589Z,1024.1
2023-02-27T08:51:02.548Z,1024.1
2023-02-27T08:52:02.463Z,1024.1
2023-02-27T08:53:02.513Z,1024.1
2023-02-27T08:54:02.526Z,1024.1
2023-02-27T08:55:02.393Z,1024.1
2023-02-27T08:56:02.371Z,1024.2
2023-02-27T08:57:02.450Z,1024.1
2023-02-27T08:58:02.355Z,1024.2
2023-02-27T08:59:02.459Z,1024.2
2023-02-27T09:00:02.595Z,1024.2
2023-02-27T09:01:02.478Z,1024.2
2023-02-27T09:02:01.790Z,1024.2
2023-02-27T09:03:02.101Z,1024.2
2023-02-27T09:04:01.813Z,1024.2
2023-02-27T09:05:01.882Z,1024.1
2023-02-27T09:06:01.747Z,1024.2
2023-02-27T09:07:02.736Z,1024.2
2023-02-27T09:08:02.556Z,1024.2
2023-02-27T09:09:02.581Z,1024.3
2023-02-27T09:10:02.415Z,1024.3
2023-02-27T09:11:02.451Z,1024.3
2023-02-27T09:12:02.433Z,1024.3
2023-02-27T09:13:02.436Z,1024.3
2023-02-27T09:14:02.304Z,1024.3
2023-02-27T09:15:02.268Z,1024.3
2023-02-27T09:16:02.025Z,1024.3
2023-02-27T09:17:02.133Z,1024.3
2023-02-27T09:18:02.201Z,1024.3
2023-02-27T09:19:02.025Z,1024.3
2023-02-27T09:20:02.275Z,1024.3
2023-02-27T09:21:01.973Z,1024.4
2023-02-27T09:22:02.200Z,1024.3
2023-02-27T09:23:01.895Z,1024.3
2023-02-27T09:24:21.116Z,1024.3
2023-02-27T09:25:01.811Z,1024.4
2023-02-27T09:26:01.838Z,1024.3
2023-02-27T09:27:01.713Z,1024.4
2023-02-27T09:28:02.673Z,1024.3
2023-02-27T09:29:02.560Z,1024.3
2023-02-27T09:30:02.573Z,1024.3
2023-02-27T09:31:02.424Z,1024.4
2023-02-27T09:32:02.853Z,1024.3
2023-02-27T09:33:02.713Z,1024.3
2023-02-27T09:34:02.558Z,1024.3
2023-02-27T09:35:02.598Z,1024.3
2023-02-27T09:36:02.676Z,1024.3
2023-02-27T09:37:02.572Z,1024.3
2023-02-27T09:38:02.525Z,1024.3
2023-02-27T09:39:02.324Z,1024.3
2023-02-27T09:40:02.588Z,1024.3
2023-02-27T09:41:02.389Z,1024.3
2023-02-27T09:42:02.350Z,1024.2
2023-02-27T09:43:02.326Z,1024.3
2023-02-27T09:44:02.111Z,1024.3
2023-02-27T09:45:06.320Z,1024.3
2023-02-27T09:46:02.244Z,1024.3
2023-02-27T09:47:02.073Z,1024.3
2023-02-27T09:48:02.137Z,1024.3
2023-02-27T09:49:02.051Z,1024.3
2023-02-27T09:50:03.127Z,1024.3
2023-02-27T09:51:01.899Z,1024.3
2023-02-27T09:52:01.898Z,1024.3
2023-02-27T09:53:01.785Z,1024.3
2023-02-27T09:54:01.790Z,1024.4
2023-02-27T09:55:01.745Z,1024.4
2023-02-27T09:56:02.772Z,1024.3
2023-02-27T09:57:02.601Z,1024.4
2023-02-27T09:58:02.653Z,1024.3
2023-02-27T09:59:02.562Z,1024.3
2023-02-27T10:00:02.557Z,1024.4
2023-02-27T10:01:02.509Z,1024.3
2023-02-27T10:02:02.283Z,1024.4
2023-02-27T10:03:02.392Z,1024.4
2023-02-27T10:04:02.228Z,1024.4
2023-02-27T10:05:02.129Z,1024.3
2023-02-27T10:06:02.207Z,1024.3
2023-02-27T10:07:01.847Z,1024.3
2023-02-27T10:08:01.927Z,1024.4
2023-02-27T10:09:01.761Z,1024.3
2023-02-27T10:10:01.832Z,1024.3
2023-02-27T10:11:02.798Z,1024.3
2023-02-27T10:12:02.573Z,1024.3
2023-02-27T10:13:02.684Z,1024.3
2023-02-27T10:14:02.532Z,1024.3
2023-02-27T10:15:02.475Z,1024.3
2023-02-27T10:16:02.588Z,1024.3
2023-02-27T10:17:02.348Z,1024.3
2023-02-27T10:18:30.446Z,1024.3
2023-02-27T10:19:02.567Z,1024.3
2023-02-27T10:20:02.465Z,1024.3
2023-02-27T10:21:02.551Z,1024.4
2023-02-27T10:22:02.569Z,1024.4
2023-02-27T10:23:02.306Z,1024.3
2023-02-27T10:24:02.402Z,1024.4
2023-02-27T10:25:02.328Z,1024.4
2023-02-27T10:26:02.317Z,1024.3
2023-02-27T10:27:02.225Z,1024.4
2023-02-27T10:28:02.035Z,1024.4
2023-02-27T10:29:02.024Z,1024.4
2023-02-27T10:30:02.034Z,1024.4
2023-02-27T10:31:02.054Z,1024.4
2023-02-27T10:32:02.830Z,1024.4
2023-02-27T10:33:02.657Z,1024.5
2023-02-27T10:34:02.640Z,1024.5
2023-02-27T10:35:02.458Z,1024.4
2023-02-27T10:36:04.170Z,1024.4
2023-02-27T10:37:02.005Z,1024.5
2023-02-27T10:38:02.052Z,1024.4
2023-02-27T10:39:01.863Z,1024.5
2023-02-27T10:40:01.864Z,1024.4
2023-02-27T10:41:01.744Z,1024.5
2023-02-27T10:42:02.800Z,1024.4
2023-02-27T10:43:06.655Z,1024.4
2023-02-27T10:44:02.378Z,1024.5
2023-02-27T10:45:02.468Z,1024.4
2023-02-27T10:46:02.978Z,1024.5
2023-02-27T10:47:02.138Z,1024.4
2023-02-27T10:48:02.054Z,1024.3
2023-02-27T10:49:02.067Z,1024.4
2023-02-27T10:50:02.127Z,1024.4
2023-02-27T10:51:01.784Z,1024.4
2023-02-27T10:52:01.767Z,1024.4
2023-02-27T10:53:02.857Z,1024.4
2023-02-27T10:54:02.626Z,1024.4
2023-02-27T10:55:02.645Z,1024.5
2023-02-27T10:56:02.607Z,1024.4
2023-02-27T10:57:02.639Z,1024.4
2023-02-27T10:58:02.418Z,1024.5
2023-02-27T10:59:02.353Z,1024.4
2023-02-27T11:00:02.341Z,1024.4
2023-02-27T11:01:02.221Z,1024.5
2023-02-27T11:02:02.364Z,1024.4
2023-02-27T11:03:02.152Z,1024.4
2023-02-27T11:04:02.024Z,1024.5
2023-02-27T11:05:02.089Z,1024.5
2023-02-27T11:06:02.001Z,1024.5
2023-02-27T11:07:01.855Z,1024.4
2023-02-27T11:08:01.661Z,1024.5
2023-02-27T11:09:02.712Z,1024.4
2023-02-27T11:10:02.566Z,1024.4
2023-02-27T11:11:02.600Z,1024.4
2023-02-27T11:12:02.451Z,1024.5
2023-02-27T11:13:02.540Z,1024.5
2023-02-27T11:14:02.511Z,1024.5
2023-02-27T11:15:02.415Z,1024.4
2023-02-27T11:16:02.597Z,1024.4
2023-02-27T11:17:02.386Z,1024.5
2023-02-27T11:18:02.211Z,1024.4
2023-02-27T11:19:02.148Z,1024.4
2023-02-27T11:20:02.103Z,1024.4
2023-02-27T11:21:02.068Z,1024.5
2023-02-27T11:22:02.038Z,1024.5
2023-02-27T11:23:02.013Z,1024.5
2023-02-27T11:24:02.032Z,1024.5
2023-02-27T11:25:04.574Z,1024.5
2023-02-27T11:26:02.427Z,1024.4
2023-02-27T11:27:02.293Z,1024.5
2023-02-27T11:28:02.289Z,1024.5
2023-02-27T11:29:02.246Z,1024.5
2023-02-27T11:30:02.087Z,1024.4
2023-02-27T11:31:02.322Z,1024.5
2023-02-27T11:32:01.948Z,1024.5
2023-02-27T11:33:01.909Z,1024.5
2023-02-27T11:34:01.745Z,1024.5
2023-02-27T11:35:02.733Z,1024.5
2023-02-27T11:36:03.031Z,1024.5
2023-02-27T11:37:01.904Z,1024.5
2023-02-27T11:38:01.722Z,1024.5
2023-02-27T11:39:02.731Z,1024.5
2023-02-27T11:40:02.595Z,1024.5
2023-02-27T11:41:02.658Z,1024.5
2023-02-27T11:42:02.478Z,1024.5
2023-02-27T11:43:02.526Z,1024.5
2023-02-27T11:44:02.543Z,1024.5
2023-02-27T11:45:03.436Z,1024.5
2023-02-27T11:46:48.836Z,1024.5
2023-02-27T11:47:02.799Z,1024.5
2023-02-27T11:48:02.734Z,1024.5
2023-02-27T11:49:02.600Z,1024.5
2023-02-27T11:50:02.637Z,1024.5
2023-02-27T11:51:02.443Z,1024.5
2023-02-27T11:52:02.527Z,1024.4
2023-02-27T11:53:02.466Z,1024.5
2023-02-27T11:54:02.348Z,1024.5
2023-02-27T11:55:02.378Z,1024.5
2023-02-27T11:56:02.322Z,1024.5
2023-02-27T11:57:02.250Z,1024.5
2023-02-27T11:58:02.360Z,1024.5
2023-02-27T11:59:02.624Z,1024.5
2023-02-27T12:00:02.339Z,1024.5
2023-02-27T12:01:02.428Z,1024.5
2023-02-27T12:02:02.063Z,1024.5
2023-02-27T12:03:02.190Z,1024.6
2023-02-27T12:04:02.301Z,1024.6
2023-02-27T12:05:02.102Z,1024.5
2023-02-27T12:06:02.124Z,1024.6
2023-02-27T12:07:01.866Z,1024.6
2023-02-27T12:08:01.896Z,1024.6
2023-02-27T12:09:01.830Z,1024.6
2023-02-27T12:10:01.729Z,1024.6
2023-02-27T12:11:15.058Z,1024.6
2023-02-27T12:12:01.735Z,1024.6
2023-02-27T12:13:01.788Z,1024.6
2023-02-27T12:14:04.424Z,1024.6
2023-02-27T12:15:02.362Z,1024.6
2023-02-27T12:16:02.406Z,1024.6
2023-02-27T12:17:01.996Z,1024.5
2023-02-27T12:18:02.060Z,1024.6
2023-02-27T12:19:01.823Z,1024.6
2023-02-27T12:20:01.851Z,1024.7
2023-02-27T12:21:01.708Z,1024.6
2023-02-27T12:22:02.756Z,1024.6
2023-02-27T12:23:02.578Z,1024.7
2023-02-27T12:24:02.593Z,1024.6
2023-02-27T12:25:02.511Z,1024.7
2023-02-27T12:26:02.552Z,1024.6
2023-02-27T12:27:02.340Z,1024.7
2023-02-27T12:28:02.248Z,1024.7
2023-02-27T12:29:02.254Z,1024.7
2023-02-27T12:30:02.188Z,1024.6
2023-02-27T12:31:02.071Z,1024.7
2023-02-27T12:32:02.562Z,1024.7